99WI weather

CLOSED Foscoro Airport
Algoma, Wisconsin, United States

Public forecast

Using degrees Fahrenheit for public forecast. Weather courtesy of forecast.io.

METAR (pilot weather report)

Report is more than 6 hours old.

Closest report is Door County Cherryland Airport, 9.9 nm (18.4 km) N. Retrieved 2019/09/17 23:56 UTC (1 day ago):

KSUE 182356Z AUTO 17013KT 10SM CLR 19/17 A3003 RMK AO2 SLP167 T01940167 10228 20189 55002

TAF (pilot weather forecast)

Forecast is more than 12 hours old.

Closest forecast is Austin Straubel International Airport, 34.1 nm (63.2 km) WSW. Retrieved 2019/09/18 00:40 UTC (1 day ago):

TAF KGRB 182337Z 1900/1924 16011KT P6SM BKN200 FM190300 19007KT P6SM BKN200 WS013/21035KT FM190800 19007KT P6SM VCSH SCT040 BKN100 WS013/21035KT FM191100 20006KT P6SM VCSH BKN040 BKN100 FM191500 21008KT P6SM BKN040 FM192300 17006KT P6SM BKN040